createdAt,value
2017-08-16T00:02:12.180Z,21.01
2017-08-16T00:04:39.686Z,20.92
2017-08-16T00:07:07.723Z,20.91
2017-08-16T00:09:35.196Z,20.72
2017-08-16T00:12:02.662Z,20.88
2017-08-16T00:14:30.136Z,20.90
2017-08-16T00:16:57.684Z,20.91
2017-08-16T00:19:25.181Z,20.85
2017-08-16T00:21:52.644Z,20.72
2017-08-16T00:24:20.233Z,20.74
2017-08-16T00:26:47.698Z,20.73
2017-08-16T00:29:15.171Z,20.71
2017-08-16T00:31:42.649Z,20.68
2017-08-16T00:34:10.119Z,20.62
2017-08-16T00:36:37.624Z,20.71
2017-08-16T00:39:05.095Z,20.68
2017-08-16T00:41:32.595Z,20.62
2017-08-16T00:44:00.060Z,20.62
2017-08-16T00:46:27.538Z,20.66
2017-08-16T00:48:54.989Z,20.68
2017-08-16T00:51:22.499Z,20.70
2017-08-16T00:53:49.986Z,20.70
2017-08-16T00:56:17.446Z,20.68
2017-08-16T00:58:44.982Z,20.69
2017-08-16T01:01:12.434Z,20.64
2017-08-16T01:03:39.937Z,20.59
2017-08-16T01:06:07.414Z,20.59
2017-08-16T01:08:34.878Z,20.59
2017-08-16T01:11:02.357Z,20.65
2017-08-16T01:13:29.818Z,20.67
2017-08-16T01:15:57.276Z,20.68
2017-08-16T01:18:24.762Z,20.63
2017-08-16T01:20:52.252Z,20.64
2017-08-16T01:23:19.702Z,20.57
2017-08-16T01:25:47.181Z,20.49
2017-08-16T01:28:14.656Z,20.45
2017-08-16T01:30:42.165Z,20.47
2017-08-16T01:33:09.634Z,20.43
2017-08-16T01:35:37.127Z,20.49
2017-08-16T01:38:04.590Z,20.48
2017-08-16T01:40:32.064Z,20.30
2017-08-16T01:42:59.561Z,20.39
2017-08-16T01:45:27.009Z,20.45
2017-08-16T01:47:54.504Z,20.47
2017-08-16T01:50:21.979Z,20.34
2017-08-16T01:52:49.462Z,20.32
2017-08-16T01:55:16.954Z,20.46
2017-08-16T01:57:44.396Z,20.48
2017-08-16T02:00:11.804Z,20.46
2017-08-16T02:02:39.227Z,20.45
2017-08-16T02:05:06.658Z,20.39
2017-08-16T02:07:34.064Z,20.42
2017-08-16T02:10:01.492Z,20.38
2017-08-16T02:12:28.893Z,20.29
2017-08-16T02:14:56.328Z,20.30
2017-08-16T02:17:23.779Z,20.34
2017-08-16T02:19:51.222Z,20.33
2017-08-16T02:22:18.617Z,20.29
2017-08-16T02:24:46.096Z,20.27
2017-08-16T02:27:13.604Z,20.25
2017-08-16T02:29:41.063Z,20.17
2017-08-16T02:32:08.569Z,20.09
2017-08-16T02:34:36.014Z,19.95
2017-08-16T02:37:03.481Z,19.90
2017-08-16T02:39:30.975Z,20.03
2017-08-16T02:41:58.447Z,20.01
2017-08-16T02:44:25.902Z,19.99
2017-08-16T02:46:53.403Z,19.92
2017-08-16T02:49:20.870Z,20.08
2017-08-16T02:51:48.373Z,20.04
2017-08-16T02:54:15.846Z,19.99
2017-08-16T02:56:43.339Z,19.94
2017-08-16T02:59:10.816Z,19.96
2017-08-16T03:01:38.276Z,19.92
2017-08-16T03:04:05.774Z,19.92
2017-08-16T03:06:33.260Z,19.91
2017-08-16T03:09:00.762Z,19.91
2017-08-16T03:11:28.234Z,19.94
2017-08-16T03:13:55.746Z,19.95
2017-08-16T03:19:16.197Z,19.96
2017-08-16T03:21:43.666Z,19.97
2017-08-16T03:24:11.119Z,20.00
2017-08-16T03:26:38.626Z,20.05
2017-08-16T03:29:06.598Z,20.09
2017-08-16T03:31:34.074Z,20.16
2017-08-16T03:34:02.910Z,20.13
2017-08-16T03:36:30.379Z,20.19
2017-08-16T03:38:57.885Z,20.16
2017-08-16T03:41:25.386Z,20.17
2017-08-16T03:43:52.849Z,20.20
2017-08-16T03:46:20.449Z,20.22
2017-08-16T03:48:47.907Z,20.18
2017-08-16T03:51:15.375Z,20.17
2017-08-16T03:53:42.855Z,20.20
2017-08-16T03:56:10.329Z,20.08
2017-08-16T03:58:37.789Z,20.05
2017-08-16T04:01:05.350Z,20.16
2017-08-16T04:03:32.801Z,20.18
2017-08-16T04:06:00.263Z,20.15
2017-08-16T04:08:27.754Z,20.11
2017-08-16T04:10:55.231Z,20.12
2017-08-16T04:13:22.709Z,20.08
2017-08-16T04:15:50.195Z,20.00
2017-08-16T04:18:17.684Z,20.02
2017-08-16T04:20:45.159Z,20.13
2017-08-16T04:23:12.633Z,20.12
2017-08-16T04:25:40.241Z,20.05
2017-08-16T04:28:07.711Z,19.87
2017-08-16T04:30:35.190Z,19.89
2017-08-16T04:33:02.679Z,19.94
2017-08-16T04:35:30.170Z,19.98
2017-08-16T04:37:57.635Z,19.94
2017-08-16T04:40:25.124Z,19.73
2017-08-16T04:42:52.603Z,19.96
2017-08-16T04:45:20.083Z,19.92
2017-08-16T04:47:47.579Z,19.88
2017-08-16T04:50:15.049Z,19.90
2017-08-16T04:52:42.615Z,19.89
2017-08-16T04:55:10.057Z,19.94
2017-08-16T04:57:37.534Z,19.99
2017-08-16T05:00:04.998Z,19.96
2017-08-16T05:02:32.518Z,19.96
2017-08-16T05:04:59.973Z,19.98
2017-08-16T05:07:27.464Z,20.13
2017-08-16T05:09:54.962Z,20.18
2017-08-16T05:12:22.471Z,20.12
2017-08-16T05:14:49.971Z,20.05
2017-08-16T05:17:17.434Z,20.08
2017-08-16T05:19:44.927Z,20.13
2017-08-16T05:22:12.435Z,20.14
2017-08-16T05:24:39.963Z,20.17
2017-08-16T05:27:07.433Z,20.16
2017-08-16T05:29:34.943Z,20.16
2017-08-16T05:32:02.407Z,20.17
2017-08-16T05:34:29.912Z,20.22
2017-08-16T05:36:57.382Z,20.24
2017-08-16T05:39:24.906Z,20.27
2017-08-16T05:41:52.371Z,20.30
2017-08-16T05:44:19.879Z,20.31
2017-08-16T05:46:47.345Z,20.34
2017-08-16T05:49:14.830Z,20.33
2017-08-16T05:51:42.289Z,20.36
2017-08-16T05:54:10.715Z,20.34
2017-08-16T05:56:38.193Z,20.39
2017-08-16T05:59:05.699Z,20.39
2017-08-16T06:01:33.219Z,20.47
2017-08-16T06:04:00.702Z,20.55
2017-08-16T06:06:29.877Z,20.42
2017-08-16T06:08:59.140Z,20.60
2017-08-16T06:11:26.650Z,20.54
2017-08-16T06:13:54.134Z,20.55
2017-08-16T06:16:21.637Z,20.55
2017-08-16T06:18:49.109Z,20.58
2017-08-16T06:21:16.575Z,20.66
2017-08-16T06:23:44.086Z,20.74
2017-08-16T06:26:11.545Z,20.83
2017-08-16T06:28:39.068Z,20.92
2017-08-16T06:31:06.574Z,20.94
2017-08-16T06:33:34.056Z,20.98
2017-08-16T06:36:01.548Z,20.98
2017-08-16T06:38:29.053Z,20.86
2017-08-16T06:40:56.590Z,20.75
2017-08-16T06:43:24.234Z,20.60
2017-08-16T06:45:51.726Z,20.60
2017-08-16T06:48:19.198Z,20.67
2017-08-16T06:50:47.270Z,20.73
2017-08-16T06:53:14.762Z,20.82
2017-08-16T06:55:42.279Z,20.83
2017-08-16T06:58:09.837Z,20.93
2017-08-16T07:00:37.445Z,20.86
2017-08-16T07:03:04.983Z,20.90
2017-08-16T07:05:32.461Z,21.02
2017-08-16T07:07:59.972Z,21.08
2017-08-16T07:10:27.428Z,21.05
2017-08-16T07:12:54.948Z,21.09
2017-08-16T07:15:22.433Z,21.09
2017-08-16T07:17:49.940Z,21.18
2017-08-16T07:20:17.438Z,21.25
2017-08-16T07:22:44.942Z,21.32
2017-08-16T07:25:12.447Z,21.45
2017-08-16T07:27:39.980Z,21.47
2017-08-16T07:30:07.588Z,21.47
2017-08-16T07:32:35.052Z,21.40
2017-08-16T07:35:02.567Z,21.43
2017-08-16T07:37:30.038Z,21.47
2017-08-16T07:39:58.060Z,21.46
2017-08-16T07:42:27.334Z,21.68
2017-08-16T07:44:54.868Z,21.86
2017-08-16T07:47:22.422Z,21.93
2017-08-16T07:49:50.119Z,22.04
2017-08-16T07:52:17.715Z,22.25
2017-08-16T07:54:45.252Z,22.44
2017-08-16T07:57:12.778Z,22.49
2017-08-16T07:59:40.317Z,22.36
2017-08-16T08:02:07.804Z,22.38
2017-08-16T08:04:35.280Z,22.43
2017-08-16T08:07:03.027Z,22.74
2017-08-16T08:09:31.273Z,22.87
2017-08-16T08:11:58.778Z,23.07
2017-08-16T08:14:26.257Z,23.07
2017-08-16T08:16:53.780Z,23.10
2017-08-16T08:19:21.290Z,23.15
2017-08-16T08:21:48.749Z,23.07
2017-08-16T08:24:16.249Z,23.19
2017-08-16T08:26:43.747Z,23.32
2017-08-16T08:29:11.277Z,23.54
2017-08-16T08:31:38.816Z,23.50
2017-08-16T08:34:07.073Z,23.57
2017-08-16T08:36:34.554Z,23.77
2017-08-16T08:39:02.094Z,23.38
2017-08-16T08:41:29.657Z,23.21
2017-08-16T08:43:57.163Z,23.10
2017-08-16T08:46:24.651Z,23.06
2017-08-16T08:48:52.122Z,23.06
2017-08-16T08:51:20.135Z,23.37
2017-08-16T08:53:47.679Z,23.72
2017-08-16T08:56:17.592Z,23.81
2017-08-16T08:58:48.250Z,24.14
2017-08-16T09:01:18.626Z,24.24
2017-08-16T09:03:46.086Z,24.37
2017-08-16T09:06:15.645Z,24.11
2017-08-16T09:08:46.610Z,24.59
2017-08-16T09:11:14.090Z,24.72
2017-08-16T09:13:41.575Z,24.81
2017-08-16T09:16:09.051Z,24.68
2017-08-16T09:18:36.546Z,24.71
2017-08-16T09:21:04.004Z,24.63
2017-08-16T09:23:31.512Z,24.69
2017-08-16T09:25:59.051Z,24.63
2017-08-16T09:28:26.565Z,24.65
2017-08-16T09:30:54.077Z,24.83
2017-08-16T09:33:21.904Z,25.05
2017-08-16T09:35:49.425Z,25.12
2017-08-16T09:38:16.925Z,25.20
2017-08-16T09:40:44.423Z,25.28
2017-08-16T09:43:12.709Z,25.37
2017-08-16T09:45:40.227Z,25.18
2017-08-16T09:48:07.696Z,25.18
2017-08-16T09:50:35.201Z,25.30
2017-08-16T09:53:02.688Z,25.42
2017-08-16T09:55:30.186Z,25.46
2017-08-16T09:57:57.665Z,25.45
2017-08-16T10:00:25.130Z,25.23
2017-08-16T10:02:53.267Z,25.19
2017-08-16T10:05:20.755Z,25.24
2017-08-16T10:07:48.293Z,25.39
2017-08-16T10:10:15.754Z,25.31
2017-08-16T10:12:43.231Z,25.43
2017-08-16T10:15:10.680Z,25.71
2017-08-16T10:17:38.182Z,25.71
2017-08-16T10:20:05.692Z,25.76
2017-08-16T10:22:33.204Z,25.80
2017-08-16T10:25:00.688Z,25.81
2017-08-16T10:27:28.158Z,25.74
2017-08-16T10:29:55.640Z,26.00
2017-08-16T10:32:23.122Z,26.15
2017-08-16T10:34:50.635Z,26.37
2017-08-16T10:37:18.080Z,26.22
2017-08-16T10:39:45.564Z,26.28
2017-08-16T10:42:13.051Z,26.48
2017-08-16T10:44:40.603Z,26.61
2017-08-16T10:47:08.565Z,26.84
2017-08-16T10:49:36.018Z,26.87
2017-08-16T10:52:03.524Z,26.39
2017-08-16T10:54:30.991Z,26.11
2017-08-16T10:56:58.470Z,26.44
2017-08-16T10:59:25.942Z,26.62
2017-08-16T11:01:53.453Z,26.28
2017-08-16T11:04:20.931Z,26.43
2017-08-16T11:06:48.381Z,26.67
2017-08-16T11:09:15.860Z,26.96
2017-08-16T11:11:43.345Z,27.07
2017-08-16T11:14:11.724Z,27.17
2017-08-16T11:16:40.143Z,27.12
2017-08-16T11:19:07.702Z,27.26
2017-08-16T11:21:35.887Z,27.23
2017-08-16T11:24:03.514Z,27.40
2017-08-16T11:26:31.020Z,27.60
2017-08-16T11:28:58.521Z,27.66
2017-08-16T11:31:26.003Z,27.65
2017-08-16T11:33:53.649Z,27.64
2017-08-16T11:36:21.160Z,27.82
2017-08-16T11:38:49.170Z,27.88
2017-08-16T11:41:16.692Z,28.00
2017-08-16T11:43:44.248Z,27.91
2017-08-16T11:46:11.706Z,28.01
2017-08-16T11:48:39.276Z,28.15
2017-08-16T11:51:06.816Z,28.13
2017-08-16T11:53:34.297Z,28.06
2017-08-16T11:56:01.837Z,27.94
2017-08-16T11:58:29.331Z,28.04
2017-08-16T12:00:56.785Z,27.26
2017-08-16T12:03:24.277Z,27.97
2017-08-16T12:05:51.834Z,27.97
2017-08-16T12:08:19.336Z,27.83
2017-08-16T12:10:46.849Z,27.86
2017-08-16T12:13:14.358Z,28.03
2017-08-16T12:15:41.893Z,28.07
2017-08-16T12:18:09.351Z,28.04
2017-08-16T12:20:36.852Z,28.03
2017-08-16T12:23:04.403Z,28.15
2017-08-16T12:25:31.911Z,28.30
2017-08-16T12:27:59.399Z,28.25
2017-08-16T12:30:26.885Z,28.17
2017-08-16T12:32:54.344Z,28.32
2017-08-16T12:35:21.843Z,28.49
2017-08-16T12:37:49.323Z,28.47
2017-08-16T12:40:16.845Z,28.37
2017-08-16T12:42:45.242Z,28.23
2017-08-16T12:45:13.317Z,28.19
2017-08-16T12:47:41.367Z,28.14
2017-08-16T12:50:08.842Z,28.02
2017-08-16T12:52:37.049Z,27.91
2017-08-16T12:55:04.532Z,27.98
2017-08-16T12:57:32.210Z,28.11
2017-08-16T13:00:00.354Z,28.21
2017-08-16T13:02:27.876Z,28.22
2017-08-16T13:04:55.340Z,28.33
2017-08-16T13:07:22.948Z,28.44
2017-08-16T13:09:50.449Z,28.72
2017-08-16T13:12:17.948Z,28.85
2017-08-16T13:14:45.446Z,28.87
2017-08-16T13:17:12.890Z,28.93
2017-08-16T13:19:40.403Z,29.04
2017-08-16T13:22:07.875Z,29.15
2017-08-16T13:24:35.417Z,29.14
2017-08-16T13:27:03.038Z,29.09
2017-08-16T13:29:30.529Z,29.39
2017-08-16T13:31:58.009Z,29.39
2017-08-16T13:34:25.524Z,29.51
2017-08-16T13:36:53.014Z,29.24
2017-08-16T13:39:20.517Z,29.02
2017-08-16T13:41:48.055Z,28.89
2017-08-16T13:44:15.520Z,28.86
2017-08-16T13:46:43.004Z,29.02
2017-08-16T13:49:10.501Z,29.31
2017-08-16T13:51:38.009Z,29.54
2017-08-16T13:54:05.492Z,29.94
2017-08-16T13:56:33.036Z,30.28
2017-08-16T13:59:00.542Z,30.57
2017-08-16T14:01:28.014Z,30.69
2017-08-16T14:03:55.507Z,30.99
2017-08-16T14:06:22.977Z,31.12
2017-08-16T14:08:50.516Z,31.28
2017-08-16T14:11:18.310Z,30.87
2017-08-16T14:13:45.786Z,30.10
2017-08-16T14:16:13.282Z,30.15
2017-08-16T14:18:41.866Z,30.05
2017-08-16T14:21:09.370Z,30.25
2017-08-16T14:23:36.828Z,30.20
2017-08-16T14:26:04.296Z,30.09
2017-08-16T14:28:31.764Z,29.76
2017-08-16T14:30:59.285Z,29.57
2017-08-16T14:33:26.749Z,29.21
2017-08-16T14:35:54.242Z,29.06
2017-08-16T14:38:21.725Z,29.15
2017-08-16T14:40:49.199Z,28.93
2017-08-16T14:43:16.673Z,28.85
2017-08-16T14:45:44.137Z,28.74
2017-08-16T14:48:11.729Z,28.51
2017-08-16T14:50:39.182Z,28.45
2017-08-16T14:53:06.673Z,28.46
2017-08-16T14:55:34.168Z,28.49
2017-08-16T14:58:01.709Z,28.56
2017-08-16T15:00:29.280Z,28.55
2017-08-16T15:02:56.789Z,28.58
2017-08-16T15:05:24.344Z,28.73
2017-08-16T15:07:51.865Z,28.82
2017-08-16T15:10:19.415Z,28.72
2017-08-16T15:12:46.934Z,28.62
2017-08-16T15:15:14.514Z,28.60
2017-08-16T15:17:42.029Z,28.57
2017-08-16T15:20:09.518Z,28.51
2017-08-16T15:22:37.053Z,28.39
2017-08-16T15:25:04.506Z,28.42
2017-08-16T15:27:32.013Z,28.41
2017-08-16T15:29:59.480Z,28.55
2017-08-16T15:32:26.999Z,28.52
2017-08-16T15:34:54.528Z,28.38
2017-08-16T15:37:22.022Z,28.37
2017-08-16T15:39:49.479Z,28.39
2017-08-16T15:42:17.223Z,28.52
2017-08-16T15:44:44.693Z,28.53
2017-08-16T15:47:12.177Z,28.43
2017-08-16T15:49:40.189Z,28.34
2017-08-16T15:52:07.712Z,28.20
2017-08-16T15:54:35.210Z,28.12
2017-08-16T15:57:03.515Z,28.10
2017-08-16T15:59:31.006Z,28.05
2017-08-16T16:01:58.470Z,28.16
2017-08-16T16:04:25.981Z,28.21
2017-08-16T16:06:54.315Z,28.21
2017-08-16T16:09:21.854Z,28.26
2017-08-16T16:11:49.330Z,28.52
2017-08-16T16:14:16.837Z,28.77
2017-08-16T16:16:44.343Z,28.88
2017-08-16T16:19:11.828Z,29.00
2017-08-16T16:21:39.317Z,29.10
2017-08-16T16:24:06.848Z,29.10
2017-08-16T16:26:34.404Z,28.98
2017-08-16T16:29:02.466Z,28.98
2017-08-16T16:31:30.678Z,28.78
2017-08-16T16:33:58.135Z,28.58
2017-08-16T16:36:25.818Z,28.49
2017-08-16T16:38:53.306Z,28.32
2017-08-16T16:41:20.764Z,28.34
2017-08-16T16:43:48.299Z,28.34
2017-08-16T16:46:15.789Z,28.22
2017-08-16T16:48:44.261Z,28.39
2017-08-16T16:51:11.864Z,28.44
2017-08-16T16:53:41.119Z,28.49
2017-08-16T16:56:08.612Z,28.74
2017-08-16T16:58:36.123Z,29.08
2017-08-16T17:01:03.611Z,29.20
2017-08-16T17:03:31.508Z,29.09
2017-08-16T17:05:59.034Z,28.93
2017-08-16T17:08:26.505Z,28.78
2017-08-16T17:10:54.023Z,28.62
2017-08-16T17:13:21.593Z,28.55
2017-08-16T17:15:49.078Z,28.62
2017-08-16T17:18:16.544Z,28.48
2017-08-16T17:20:44.034Z,28.50
2017-08-16T17:23:15.233Z,28.50
2017-08-16T17:25:42.762Z,28.41
2017-08-16T17:28:10.249Z,28.35
2017-08-16T17:30:37.750Z,28.31
2017-08-16T17:33:05.542Z,28.25
2017-08-16T17:35:33.332Z,28.19
2017-08-16T17:38:00.860Z,28.14
2017-08-16T17:40:28.375Z,28.04
2017-08-16T17:42:55.894Z,27.95
2017-08-16T17:45:23.407Z,27.83
2017-08-16T17:47:50.893Z,27.74
2017-08-16T17:50:18.607Z,27.74
2017-08-16T17:52:46.092Z,27.63
2017-08-16T17:55:13.581Z,27.58
2017-08-16T17:57:41.815Z,27.45
2017-08-16T18:00:09.328Z,27.41
2017-08-16T18:02:36.913Z,27.43
2017-08-16T18:05:04.555Z,27.45
2017-08-16T18:07:32.065Z,27.43
2017-08-16T18:09:59.553Z,27.38
2017-08-16T18:12:27.120Z,27.30
2017-08-16T18:14:54.710Z,27.21
2017-08-16T18:17:22.218Z,27.15
2017-08-16T18:19:50.396Z,27.15
2017-08-16T18:22:17.960Z,27.12
2017-08-16T18:24:45.485Z,27.05
2017-08-16T18:27:12.996Z,27.00
2017-08-16T18:29:40.582Z,26.99
2017-08-16T18:32:08.153Z,26.98
2017-08-16T18:34:35.618Z,26.92
2017-08-16T18:37:04.061Z,26.89
2017-08-16T18:39:31.604Z,26.85
2017-08-16T18:41:59.210Z,26.84
2017-08-16T18:44:26.696Z,26.77
2017-08-16T18:46:54.162Z,26.74
2017-08-16T18:49:21.725Z,26.74
2017-08-16T18:51:49.205Z,26.71
2017-08-16T18:54:16.708Z,26.68
2017-08-16T18:56:44.170Z,26.51
2017-08-16T18:59:12.059Z,26.45
2017-08-16T19:01:39.550Z,26.39
2017-08-16T19:04:07.022Z,26.35
2017-08-16T19:06:34.527Z,26.32
2017-08-16T19:09:02.015Z,26.34
2017-08-16T19:11:29.884Z,26.21
2017-08-16T19:13:57.409Z,26.15
2017-08-16T19:16:24.929Z,26.07
2017-08-16T19:18:52.692Z,26.08
2017-08-16T19:21:20.166Z,26.05
2017-08-16T19:23:47.656Z,26.04
2017-08-16T19:26:15.473Z,26.00
2017-08-16T19:28:43.006Z,25.94
2017-08-16T19:31:10.484Z,25.85
2017-08-16T19:33:38.023Z,25.85
2017-08-16T19:36:05.494Z,25.78
2017-08-16T19:38:33.015Z,25.75
2017-08-16T19:41:00.468Z,25.57
2017-08-16T19:43:28.055Z,25.28
2017-08-16T19:45:55.880Z,25.10
2017-08-16T19:48:23.402Z,24.95
2017-08-16T19:50:50.912Z,24.81
2017-08-16T19:53:18.441Z,24.73
2017-08-16T19:55:45.969Z,24.60
2017-08-16T19:58:13.427Z,24.49
2017-08-16T20:00:40.970Z,24.41
2017-08-16T20:03:08.458Z,24.27
2017-08-16T20:05:35.959Z,24.27
2017-08-16T20:08:03.447Z,24.27
2017-08-16T20:10:30.953Z,24.27
2017-08-16T20:12:58.426Z,24.32
2017-08-16T20:15:25.909Z,24.33
2017-08-16T20:17:53.381Z,24.31
2017-08-16T20:20:21.328Z,24.17
2017-08-16T20:22:48.882Z,24.20
2017-08-16T20:25:16.421Z,24.21
2017-08-16T20:27:43.883Z,24.18
2017-08-16T20:30:11.337Z,24.08
2017-08-16T20:32:38.836Z,24.14
2017-08-16T20:35:08.065Z,24.12
2017-08-16T20:37:35.583Z,24.11
2017-08-16T20:40:03.053Z,24.02
2017-08-16T20:42:30.541Z,23.96
2017-08-16T20:44:58.011Z,23.97
2017-08-16T20:47:25.502Z,24.11
2017-08-16T20:49:53.023Z,24.22
2017-08-16T20:52:20.538Z,24.11
2017-08-16T20:54:48.005Z,23.98
2017-08-16T20:57:15.639Z,23.91
2017-08-16T20:59:43.118Z,23.85
2017-08-16T21:02:10.582Z,23.87
2017-08-16T21:04:38.082Z,23.82
2017-08-16T21:07:05.529Z,23.76
2017-08-16T21:09:33.031Z,23.70
2017-08-16T21:12:00.537Z,23.72
2017-08-16T21:14:28.042Z,23.73
2017-08-16T21:16:55.493Z,23.67
2017-08-16T21:19:22.989Z,23.64
2017-08-16T21:21:50.458Z,23.54
2017-08-16T21:24:17.938Z,23.57
2017-08-16T21:26:45.438Z,23.45
2017-08-16T21:29:12.939Z,23.44
2017-08-16T21:31:40.404Z,23.48
2017-08-16T21:34:08.231Z,23.46
2017-08-16T21:36:35.699Z,23.42
2017-08-16T21:39:03.155Z,23.35
2017-08-16T21:41:31.046Z,23.31
2017-08-16T21:43:58.514Z,23.36
2017-08-16T21:46:25.977Z,23.29
2017-08-16T21:48:53.497Z,23.10
2017-08-16T21:51:21.111Z,23.00
2017-08-16T21:53:48.587Z,22.98
2017-08-16T21:56:16.074Z,22.99
2017-08-16T21:58:43.566Z,22.94
2017-08-16T22:01:11.066Z,22.83
2017-08-16T22:03:38.594Z,22.80
2017-08-16T22:06:07.832Z,22.88
2017-08-16T22:08:35.505Z,22.86
2017-08-16T22:11:03.019Z,22.62
2017-08-16T22:13:30.639Z,22.40
2017-08-16T22:15:58.185Z,22.43
2017-08-16T22:18:25.860Z,22.48
2017-08-16T22:20:53.353Z,22.62
2017-08-16T22:23:20.827Z,22.59
2017-08-16T22:25:48.315Z,22.61
2017-08-16T22:28:15.786Z,22.62
2017-08-16T22:30:43.263Z,22.60
2017-08-16T22:33:10.763Z,22.56
2017-08-16T22:35:38.222Z,22.48
2017-08-16T22:38:05.831Z,22.45
2017-08-16T22:40:33.445Z,22.44
2017-08-16T22:43:00.940Z,22.38
2017-08-16T22:45:28.450Z,22.25
2017-08-16T22:47:55.967Z,22.07
2017-08-16T22:50:23.469Z,22.05
2017-08-16T22:52:50.942Z,22.08
2017-08-16T22:55:18.444Z,22.14
2017-08-16T22:57:45.966Z,22.03
2017-08-16T23:00:13.451Z,21.88
2017-08-16T23:02:42.725Z,21.83
2017-08-16T23:05:10.235Z,21.84
2017-08-16T23:07:37.776Z,21.96
2017-08-16T23:10:05.300Z,21.81
2017-08-16T23:12:33.721Z,21.85
2017-08-16T23:15:01.259Z,21.86
2017-08-16T23:17:28.744Z,21.77
2017-08-16T23:19:56.202Z,21.85
2017-08-16T23:22:23.676Z,21.87
2017-08-16T23:24:51.173Z,21.73
2017-08-16T23:27:18.631Z,21.72
2017-08-16T23:29:46.115Z,21.81
2017-08-16T23:32:13.586Z,21.81
2017-08-16T23:34:41.074Z,21.78
2017-08-16T23:37:08.555Z,21.66
2017-08-16T23:39:36.045Z,21.60
2017-08-16T23:42:03.500Z,21.64
2017-08-16T23:44:31.188Z,21.53
2017-08-16T23:46:58.989Z,21.50
2017-08-16T23:49:26.483Z,21.46
2017-08-16T23:51:53.986Z,21.65
2017-08-16T23:54:21.470Z,21.56
2017-08-16T23:56:48.996Z,21.47
2017-08-16T23:59:16.445Z,21.49
